sensor_id;sensor_type;location;lat;lon;timestamp;temperature;humidity
11772;DHT22;12556;55.748;13.194;2023-02-10T00:02:03;3.20;99.90
11772;DHT22;12556;55.748;13.194;2023-02-10T00:04:30;3.20;99.90
11772;DHT22;12556;55.748;13.194;2023-02-10T00:06:57;3.20;99.90
11772;DHT22;12556;55.748;13.194;2023-02-10T00:09:24;3.30;99.90
11772;DHT22;12556;55.748;13.194;2023-02-10T00:11:51;3.30;99.90
11772;DHT22;12556;55.748;13.194;2023-02-10T00:14:25;3.30;99.90
11772;DHT22;12556;55.748;13.194;2023-02-10T00:16:53;3.30;99.90
11772;DHT22;12556;55.748;13.194;2023-02-10T00:19:24;3.30;99.90
11772;DHT22;12556;55.748;13.194;2023-02-10T00:21:51;3.30;99.90
11772;DHT22;12556;55.748;13.194;2023-02-10T00:24:19;3.30;99.90
11772;DHT22;12556;55.748;13.194;2023-02-10T00:26:46;3.40;99.90
11772;DHT22;12556;55.748;13.194;2023-02-10T00:29:13;3.40;99.90
11772;DHT22;12556;55.748;13.194;2023-02-10T00:31:41;3.40;99.90
11772;DHT22;12556;55.748;13.194;2023-02-10T00:34:10;3.40;99.90
11772;DHT22;12556;55.748;13.194;2023-02-10T00:36:39;3.40;99.90
11772;DHT22;12556;55.748;13.194;2023-02-10T00:39:06;3.40;99.90
11772;DHT22;12556;55.748;13.194;2023-02-10T00:41:33;3.50;99.90
11772;DHT22;12556;55.748;13.194;2023-02-10T00:44:02;3.50;99.90
11772;DHT22;12556;55.748;13.194;2023-02-10T00:46:29;3.60;99.90
11772;DHT22;12556;55.748;13.194;2023-02-10T00:48:56;3.60;99.90
11772;DHT22;12556;55.748;13.194;2023-02-10T00:51:23;3.70;99.90
11772;DHT22;12556;55.748;13.194;2023-02-10T00:53:51;3.70;99.90
11772;DHT22;12556;55.748;13.194;2023-02-10T00:56:19;3.70;99.90
11772;DHT22;12556;55.748;13.194;2023-02-10T00:58:46;3.70;99.90
11772;DHT22;12556;55.748;13.194;2023-02-10T01:01:13;3.70;99.90
11772;DHT22;12556;55.748;13.194;2023-02-10T01:03:41;3.70;99.90
11772;DHT22;12556;55.748;13.194;2023-02-10T01:06:13;3.70;99.90
11772;DHT22;12556;55.748;13.194;2023-02-10T01:08:41;3.80;99.90
11772;DHT22;12556;55.748;13.194;2023-02-10T01:11:11;3.70;99.90
11772;DHT22;12556;55.748;13.194;2023-02-10T01:13:38;3.70;99.90
11772;DHT22;12556;55.748;13.194;2023-02-10T01:16:06;3.70;99.90
11772;DHT22;12556;55.748;13.194;2023-02-10T01:18:35;3.70;99.90
11772;DHT22;12556;55.748;13.194;2023-02-10T01:21:06;3.70;99.90
11772;DHT22;12556;55.748;13.194;2023-02-10T01:23:33;3.60;99.90
11772;DHT22;12556;55.748;13.194;2023-02-10T01:26:00;3.60;99.90
11772;DHT22;12556;55.748;13.194;2023-02-10T01:28:29;3.60;99.90
11772;DHT22;12556;55.748;13.194;2023-02-10T01:30:55;3.60;99.90
11772;DHT22;12556;55.748;13.194;2023-02-10T01:33:23;3.60;99.90
11772;DHT22;12556;55.748;13.194;2023-02-10T01:35:50;3.60;99.90
11772;DHT22;12556;55.748;13.194;2023-02-10T01:38:16;3.60;99.90
11772;DHT22;12556;55.748;13.194;2023-02-10T01:40:47;3.60;99.90
11772;DHT22;12556;55.748;13.194;2023-02-10T01:43:15;3.60;99.90
11772;DHT22;12556;55.748;13.194;2023-02-10T01:45:43;3.60;99.90
11772;DHT22;12556;55.748;13.194;2023-02-10T01:48:11;3.60;99.90
11772;DHT22;12556;55.748;13.194;2023-02-10T01:50:42;3.60;99.90
11772;DHT22;12556;55.748;13.194;2023-02-10T01:53:11;3.60;99.90
11772;DHT22;12556;55.748;13.194;2023-02-10T01:55:41;3.60;99.90
11772;DHT22;12556;55.748;13.194;2023-02-10T01:58:11;3.60;99.90
11772;DHT22;12556;55.748;13.194;2023-02-10T02:00:40;3.60;99.90
11772;DHT22;12556;55.748;13.194;2023-02-10T02:03:08;3.60;99.90
11772;DHT22;12556;55.748;13.194;2023-02-10T02:05:36;3.60;99.90
11772;DHT22;12556;55.748;13.194;2023-02-10T02:08:06;3.60;99.90
11772;DHT22;12556;55.748;13.194;2023-02-10T02:10:54;3.60;99.90
11772;DHT22;12556;55.748;13.194;2023-02-10T02:13:32;3.60;99.90
11772;DHT22;12556;55.748;13.194;2023-02-10T02:16:07;3.60;99.90
11772;DHT22;12556;55.748;13.194;2023-02-10T02:18:42;3.50;99.90
11772;DHT22;12556;55.748;13.194;2023-02-10T02:21:39;3.50;99.90
11772;DHT22;12556;55.748;13.194;2023-02-10T02:24:26;3.50;99.90
11772;DHT22;12556;55.748;13.194;2023-02-10T02:27:22;3.50;99.90
11772;DHT22;12556;55.748;13.194;2023-02-10T02:30:17;3.50;99.90
11772;DHT22;12556;55.748;13.194;2023-02-10T02:32:50;3.50;99.90
11772;DHT22;12556;55.748;13.194;2023-02-10T02:35:23;3.50;99.90
11772;DHT22;12556;55.748;13.194;2023-02-10T02:37:52;3.60;99.90
11772;DHT22;12556;55.748;13.194;2023-02-10T02:40:20;3.60;99.90
11772;DHT22;12556;55.748;13.194;2023-02-10T02:42:47;3.60;99.90
11772;DHT22;12556;55.748;13.194;2023-02-10T02:45:18;3.60;99.90
11772;DHT22;12556;55.748;13.194;2023-02-10T02:47:58;3.70;99.90
11772;DHT22;12556;55.748;13.194;2023-02-10T02:50:34;3.70;99.90
11772;DHT22;12556;55.748;13.194;2023-02-10T02:53:11;3.70;99.90
11772;DHT22;12556;55.748;13.194;2023-02-10T02:55:50;4.10;99.90
11772;DHT22;12556;55.748;13.194;2023-02-10T02:58:31;3.70;99.90
11772;DHT22;12556;55.748;13.194;2023-02-10T03:01:02;3.70;99.90
11772;DHT22;12556;55.748;13.194;2023-02-10T03:03:32;3.80;99.90
11772;DHT22;12556;55.748;13.194;2023-02-10T03:06:00;3.80;99.90
11772;DHT22;12556;55.748;13.194;2023-02-10T03:08:27;3.80;99.90
11772;DHT22;12556;55.748;13.194;2023-02-10T03:10:54;3.90;99.90
11772;DHT22;12556;55.748;13.194;2023-02-10T03:13:21;3.90;99.90
11772;DHT22;12556;55.748;13.194;2023-02-10T03:15:48;3.90;99.90
11772;DHT22;12556;55.748;13.194;2023-02-10T03:18:15;3.90;99.90
11772;DHT22;12556;55.748;13.194;2023-02-10T03:20:43;4.00;99.90
11772;DHT22;12556;55.748;13.194;2023-02-10T03:23:10;4.00;99.90
11772;DHT22;12556;55.748;13.194;2023-02-10T03:25:37;4.00;99.90
11772;DHT22;12556;55.748;13.194;2023-02-10T03:28:04;4.00;99.90
11772;DHT22;12556;55.748;13.194;2023-02-10T03:30:32;4.10;99.90
11772;DHT22;12556;55.748;13.194;2023-02-10T03:32:59;4.10;99.90
11772;DHT22;12556;55.748;13.194;2023-02-10T03:35:26;4.10;99.90
11772;DHT22;12556;55.748;13.194;2023-02-10T03:37:54;4.20;99.90
11772;DHT22;12556;55.748;13.194;2023-02-10T03:40:21;4.10;99.90
11772;DHT22;12556;55.748;13.194;2023-02-10T03:42:48;4.20;99.90
11772;DHT22;12556;55.748;13.194;2023-02-10T03:45:15;4.20;99.90
11772;DHT22;12556;55.748;13.194;2023-02-10T03:47:42;4.20;99.90
11772;DHT22;12556;55.748;13.194;2023-02-10T03:50:09;4.20;99.90
11772;DHT22;12556;55.748;13.194;2023-02-10T03:52:35;4.20;99.90
11772;DHT22;12556;55.748;13.194;2023-02-10T03:55:04;4.20;99.90
11772;DHT22;12556;55.748;13.194;2023-02-10T03:57:31;4.20;99.90
11772;DHT22;12556;55.748;13.194;2023-02-10T03:59:58;4.20;99.90
11772;DHT22;12556;55.748;13.194;2023-02-10T04:02:25;4.20;99.90
11772;DHT22;12556;55.748;13.194;2023-02-10T04:04:52;4.10;99.90
11772;DHT22;12556;55.748;13.194;2023-02-10T04:07:19;4.20;99.90
11772;DHT22;12556;55.748;13.194;2023-02-10T04:09:46;4.20;99.90
11772;DHT22;12556;55.748;13.194;2023-02-10T04:12:14;4.10;99.90
11772;DHT22;12556;55.748;13.194;2023-02-10T04:14:41;4.10;99.90
11772;DHT22;12556;55.748;13.194;2023-02-10T04:17:08;4.10;99.90
11772;DHT22;12556;55.748;13.194;2023-02-10T04:19:35;4.00;99.90
11772;DHT22;12556;55.748;13.194;2023-02-10T04:22:02;4.00;99.90
11772;DHT22;12556;55.748;13.194;2023-02-10T04:24:29;4.00;99.90
11772;DHT22;12556;55.748;13.194;2023-02-10T04:26:56;4.00;99.90
11772;DHT22;12556;55.748;13.194;2023-02-10T04:29:24;4.00;99.90
11772;DHT22;12556;55.748;13.194;2023-02-10T04:31:51;3.90;99.90
11772;DHT22;12556;55.748;13.194;2023-02-10T04:34:17;3.90;99.90
11772;DHT22;12556;55.748;13.194;2023-02-10T04:36:44;3.90;99.90
11772;DHT22;12556;55.748;13.194;2023-02-10T04:39:11;3.90;99.90
11772;DHT22;12556;55.748;13.194;2023-02-10T04:41:38;3.90;99.90
11772;DHT22;12556;55.748;13.194;2023-02-10T04:44:05;3.90;99.90
11772;DHT22;12556;55.748;13.194;2023-02-10T04:46:34;3.90;99.90
11772;DHT22;12556;55.748;13.194;2023-02-10T04:49:00;3.90;99.90
11772;DHT22;12556;55.748;13.194;2023-02-10T04:51:27;4.00;99.90
11772;DHT22;12556;55.748;13.194;2023-02-10T04:53:54;4.00;99.90
11772;DHT22;12556;55.748;13.194;2023-02-10T04:56:21;3.90;99.90
11772;DHT22;12556;55.748;13.194;2023-02-10T04:58:48;4.00;99.90
11772;DHT22;12556;55.748;13.194;2023-02-10T05:01:15;4.00;99.90
11772;DHT22;12556;55.748;13.194;2023-02-10T05:03:43;4.00;99.90
11772;DHT22;12556;55.748;13.194;2023-02-10T05:06:12;4.00;99.90
11772;DHT22;12556;55.748;13.194;2023-02-10T05:08:40;4.00;99.90
11772;DHT22;12556;55.748;13.194;2023-02-10T05:11:08;4.00;99.90
11772;DHT22;12556;55.748;13.194;2023-02-10T05:13:35;3.90;99.90
11772;DHT22;12556;55.748;13.194;2023-02-10T05:16:03;3.90;99.90
11772;DHT22;12556;55.748;13.194;2023-02-10T05:18:30;3.90;99.90
11772;DHT22;12556;55.748;13.194;2023-02-10T05:20:59;3.90;99.90
11772;DHT22;12556;55.748;13.194;2023-02-10T05:23:26;3.90;99.90
11772;DHT22;12556;55.748;13.194;2023-02-10T05:25:53;3.80;99.90
11772;DHT22;12556;55.748;13.194;2023-02-10T05:28:20;3.70;99.90
11772;DHT22;12556;55.748;13.194;2023-02-10T05:30:48;3.70;99.90
11772;DHT22;12556;55.748;13.194;2023-02-10T05:33:15;3.60;99.90
11772;DHT22;12556;55.748;13.194;2023-02-10T05:35:41;3.60;99.90
11772;DHT22;12556;55.748;13.194;2023-02-10T05:38:10;3.60;99.90
11772;DHT22;12556;55.748;13.194;2023-02-10T05:40:37;3.60;99.90
11772;DHT22;12556;55.748;13.194;2023-02-10T05:43:04;3.50;99.90
11772;DHT22;12556;55.748;13.194;2023-02-10T05:45:32;3.50;99.90
11772;DHT22;12556;55.748;13.194;2023-02-10T05:47:59;3.50;99.90
11772;DHT22;12556;55.748;13.194;2023-02-10T05:50:25;3.40;99.90
11772;DHT22;12556;55.748;13.194;2023-02-10T05:52:52;3.40;99.90
11772;DHT22;12556;55.748;13.194;2023-02-10T05:55:21;3.40;99.90
11772;DHT22;12556;55.748;13.194;2023-02-10T05:57:47;3.40;99.90
11772;DHT22;12556;55.748;13.194;2023-02-10T06:00:16;3.40;99.90
11772;DHT22;12556;55.748;13.194;2023-02-10T06:02:43;3.40;99.90
11772;DHT22;12556;55.748;13.194;2023-02-10T06:05:10;3.40;99.90
11772;DHT22;12556;55.748;13.194;2023-02-10T06:07:37;3.30;99.90
11772;DHT22;12556;55.748;13.194;2023-02-10T06:10:04;3.30;99.90
11772;DHT22;12556;55.748;13.194;2023-02-10T06:12:33;3.20;99.90
11772;DHT22;12556;55.748;13.194;2023-02-10T06:14:59;3.20;99.90
11772;DHT22;12556;55.748;13.194;2023-02-10T06:17:26;3.20;99.90
11772;DHT22;12556;55.748;13.194;2023-02-10T06:19:53;3.20;99.90
11772;DHT22;12556;55.748;13.194;2023-02-10T06:22:20;3.10;99.90
11772;DHT22;12556;55.748;13.194;2023-02-10T06:24:47;3.10;99.90
11772;DHT22;12556;55.748;13.194;2023-02-10T06:27:14;3.00;99.90
11772;DHT22;12556;55.748;13.194;2023-02-10T06:29:43;3.00;99.90
11772;DHT22;12556;55.748;13.194;2023-02-10T06:32:10;3.00;99.90
11772;DHT22;12556;55.748;13.194;2023-02-10T06:34:37;3.00;99.90
11772;DHT22;12556;55.748;13.194;2023-02-10T06:37:05;2.90;99.90
11772;DHT22;12556;55.748;13.194;2023-02-10T06:39:32;2.90;99.90
11772;DHT22;12556;55.748;13.194;2023-02-10T06:41:59;2.80;99.90
11772;DHT22;12556;55.748;13.194;2023-02-10T06:44:26;2.80;99.90
11772;DHT22;12556;55.748;13.194;2023-02-10T06:46:54;2.80;99.90
11772;DHT22;12556;55.748;13.194;2023-02-10T06:49:21;2.80;99.90
11772;DHT22;12556;55.748;13.194;2023-02-10T06:51:48;2.70;99.90
11772;DHT22;12556;55.748;13.194;2023-02-10T06:54:15;2.70;99.90
11772;DHT22;12556;55.748;13.194;2023-02-10T06:56:42;2.70;99.90
11772;DHT22;12556;55.748;13.194;2023-02-10T06:59:11;2.70;99.90
11772;DHT22;12556;55.748;13.194;2023-02-10T07:01:38;2.70;99.90
11772;DHT22;12556;55.748;13.194;2023-02-10T07:04:06;2.60;99.90
11772;DHT22;12556;55.748;13.194;2023-02-10T07:06:34;2.60;99.90
11772;DHT22;12556;55.748;13.194;2023-02-10T07:09:01;2.60;99.90
11772;DHT22;12556;55.748;13.194;2023-02-10T07:11:29;2.60;99.90
11772;DHT22;12556;55.748;13.194;2023-02-10T07:13:56;2.60;99.90
11772;DHT22;12556;55.748;13.194;2023-02-10T07:16:23;2.60;99.90
11772;DHT22;12556;55.748;13.194;2023-02-10T07:18:50;2.60;99.90
11772;DHT22;12556;55.748;13.194;2023-02-10T07:21:18;2.60;99.90
11772;DHT22;12556;55.748;13.194;2023-02-10T07:23:45;2.60;99.90
11772;DHT22;12556;55.748;13.194;2023-02-10T07:26:12;2.60;99.90
11772;DHT22;12556;55.748;13.194;2023-02-10T07:28:43;2.60;99.90
11772;DHT22;12556;55.748;13.194;2023-02-10T07:31:10;2.60;99.90
11772;DHT22;12556;55.748;13.194;2023-02-10T07:33:37;2.70;99.90
11772;DHT22;12556;55.748;13.194;2023-02-10T07:36:05;2.70;99.90
11772;DHT22;12556;55.748;13.194;2023-02-10T07:38:34;2.70;99.90
11772;DHT22;12556;55.748;13.194;2023-02-10T07:41:01;2.70;99.90
11772;DHT22;12556;55.748;13.194;2023-02-10T07:43:28;2.70;99.90
11772;DHT22;12556;55.748;13.194;2023-02-10T07:45:55;2.70;99.90
11772;DHT22;12556;55.748;13.194;2023-02-10T07:48:23;2.70;99.90
11772;DHT22;12556;55.748;13.194;2023-02-10T07:50:50;2.70;99.90
11772;DHT22;12556;55.748;13.194;2023-02-10T07:53:17;2.80;99.90
11772;DHT22;12556;55.748;13.194;2023-02-10T07:55:46;2.80;99.90
11772;DHT22;12556;55.748;13.194;2023-02-10T07:58:13;2.80;99.90
11772;DHT22;12556;55.748;13.194;2023-02-10T08:00:40;2.90;99.90
11772;DHT22;12556;55.748;13.194;2023-02-10T08:03:10;2.90;99.90
11772;DHT22;12556;55.748;13.194;2023-02-10T08:05:38;2.90;99.90
11772;DHT22;12556;55.748;13.194;2023-02-10T08:08:07;3.00;99.90
11772;DHT22;12556;55.748;13.194;2023-02-10T08:10:36;3.00;99.90
11772;DHT22;12556;55.748;13.194;2023-02-10T08:13:05;3.10;99.90
11772;DHT22;12556;55.748;13.194;2023-02-10T08:15:32;3.10;99.90
11772;DHT22;12556;55.748;13.194;2023-02-10T08:18:00;3.20;99.90
11772;DHT22;12556;55.748;13.194;2023-02-10T08:20:27;3.20;99.90
11772;DHT22;12556;55.748;13.194;2023-02-10T08:22:54;3.30;99.90
11772;DHT22;12556;55.748;13.194;2023-02-10T08:25:21;3.40;99.90
11772;DHT22;12556;55.748;13.194;2023-02-10T08:27:48;3.40;99.90
11772;DHT22;12556;55.748;13.194;2023-02-10T08:30:18;3.50;99.90
11772;DHT22;12556;55.748;13.194;2023-02-10T08:32:45;3.60;99.90
11772;DHT22;12556;55.748;13.194;2023-02-10T08:35:12;3.70;99.90
11772;DHT22;12556;55.748;13.194;2023-02-10T08:37:39;3.80;99.90
11772;DHT22;12556;55.748;13.194;2023-02-10T08:40:06;3.90;99.90
11772;DHT22;12556;55.748;13.194;2023-02-10T08:42:33;3.90;99.90
11772;DHT22;12556;55.748;13.194;2023-02-10T08:45:00;4.00;99.90
11772;DHT22;12556;55.748;13.194;2023-02-10T08:47:29;4.00;99.90
11772;DHT22;12556;55.748;13.194;2023-02-10T08:49:55;4.10;99.90
11772;DHT22;12556;55.748;13.194;2023-02-10T08:52:23;4.20;99.90
11772;DHT22;12556;55.748;13.194;2023-02-10T08:54:50;4.20;99.90
11772;DHT22;12556;55.748;13.194;2023-02-10T08:57:17;4.30;99.90
11772;DHT22;12556;55.748;13.194;2023-02-10T08:59:44;4.40;99.90
11772;DHT22;12556;55.748;13.194;2023-02-10T09:02:11;4.40;99.90
11772;DHT22;12556;55.748;13.194;2023-02-10T09:04:40;4.50;99.90
11772;DHT22;12556;55.748;13.194;2023-02-10T09:07:08;4.50;99.90
11772;DHT22;12556;55.748;13.194;2023-02-10T09:09:37;4.50;99.90
11772;DHT22;12556;55.748;13.194;2023-02-10T09:12:05;4.60;99.90
11772;DHT22;12556;55.748;13.194;2023-02-10T09:14:32;4.60;99.90
11772;DHT22;12556;55.748;13.194;2023-02-10T09:16:59;4.60;99.90
11772;DHT22;12556;55.748;13.194;2023-02-10T09:19:26;4.60;99.90
11772;DHT22;12556;55.748;13.194;2023-02-10T09:21:54;4.60;99.90
11772;DHT22;12556;55.748;13.194;2023-02-10T09:24:22;4.60;99.90
11772;DHT22;12556;55.748;13.194;2023-02-10T09:26:49;4.60;99.90
11772;DHT22;12556;55.748;13.194;2023-02-10T09:29:16;4.70;99.90
11772;DHT22;12556;55.748;13.194;2023-02-10T09:31:43;4.70;99.90
11772;DHT22;12556;55.748;13.194;2023-02-10T09:34:10;4.80;99.90
11772;DHT22;12556;55.748;13.194;2023-02-10T09:36:37;4.90;99.90
11772;DHT22;12556;55.748;13.194;2023-02-10T09:39:06;4.90;99.90
11772;DHT22;12556;55.748;13.194;2023-02-10T09:41:55;5.00;99.90
11772;DHT22;12556;55.748;13.194;2023-02-10T09:44:26;5.10;99.90
11772;DHT22;12556;55.748;13.194;2023-02-10T09:47:19;5.10;99.90
11772;DHT22;12556;55.748;13.194;2023-02-10T09:50:06;5.20;99.90
11772;DHT22;12556;55.748;13.194;2023-02-10T09:52:43;5.20;99.90
11772;DHT22;12556;55.748;13.194;2023-02-10T09:55:16;5.30;99.90
11772;DHT22;12556;55.748;13.194;2023-02-10T09:57:45;5.30;99.90
11772;DHT22;12556;55.748;13.194;2023-02-10T10:00:23;5.40;99.90
11772;DHT22;12556;55.748;13.194;2023-02-10T10:02:53;5.50;99.90
11772;DHT22;12556;55.748;13.194;2023-02-10T10:05:27;5.50;99.90
11772;DHT22;12556;55.748;13.194;2023-02-10T10:07:57;5.60;99.90
11772;DHT22;12556;55.748;13.194;2023-02-10T10:10:32;5.60;99.90
11772;DHT22;12556;55.748;13.194;2023-02-10T10:13:00;5.60;99.90
11772;DHT22;12556;55.748;13.194;2023-02-10T10:15:34;5.60;99.90
11772;DHT22;12556;55.748;13.194;2023-02-10T10:18:09;5.70;99.90
11772;DHT22;12556;55.748;13.194;2023-02-10T10:20:47;5.70;99.90
11772;DHT22;12556;55.748;13.194;2023-02-10T10:23:30;5.80;99.90
11772;DHT22;12556;55.748;13.194;2023-02-10T10:26:12;5.90;99.90
11772;DHT22;12556;55.748;13.194;2023-02-10T10:28:49;6.00;99.90
11772;DHT22;12556;55.748;13.194;2023-02-10T10:31:24;6.00;99.90
11772;DHT22;12556;55.748;13.194;2023-02-10T10:33:54;6.00;99.90
11772;DHT22;12556;55.748;13.194;2023-02-10T10:36:27;6.00;99.90
11772;DHT22;12556;55.748;13.194;2023-02-10T10:39:00;6.10;99.90
11772;DHT22;12556;55.748;13.194;2023-02-10T10:41:30;6.10;99.90
11772;DHT22;12556;55.748;13.194;2023-02-10T10:43:59;6.10;99.90
11772;DHT22;12556;55.748;13.194;2023-02-10T10:46:28;6.10;99.90
11772;DHT22;12556;55.748;13.194;2023-02-10T10:48:55;6.10;99.90
11772;DHT22;12556;55.748;13.194;2023-02-10T10:51:23;6.20;99.90
11772;DHT22;12556;55.748;13.194;2023-02-10T10:53:52;6.30;99.90
11772;DHT22;12556;55.748;13.194;2023-02-10T10:56:27;6.40;99.90
11772;DHT22;12556;55.748;13.194;2023-02-10T10:59:02;6.40;99.90
11772;DHT22;12556;55.748;13.194;2023-02-10T11:01:32;6.60;99.90
11772;DHT22;12556;55.748;13.194;2023-02-10T11:04:04;6.70;99.90
11772;DHT22;12556;55.748;13.194;2023-02-10T11:06:34;6.90;99.90
11772;DHT22;12556;55.748;13.194;2023-02-10T11:09:04;7.00;99.90
11772;DHT22;12556;55.748;13.194;2023-02-10T11:11:33;7.00;99.90
11772;DHT22;12556;55.748;13.194;2023-02-10T11:14:02;7.10;99.90
11772;DHT22;12556;55.748;13.194;2023-02-10T11:16:29;7.30;99.90
11772;DHT22;12556;55.748;13.194;2023-02-10T11:19:17;7.50;99.90
11772;DHT22;12556;55.748;13.194;2023-02-10T11:21:44;7.70;99.90
11772;DHT22;12556;55.748;13.194;2023-02-10T11:24:21;7.80;99.90
11772;DHT22;12556;55.748;13.194;2023-02-10T11:26:59;7.90;99.90
11772;DHT22;12556;55.748;13.194;2023-02-10T11:29:29;8.00;99.90
11772;DHT22;12556;55.748;13.194;2023-02-10T11:31:57;8.00;99.90
11772;DHT22;12556;55.748;13.194;2023-02-10T11:34:26;8.00;99.90
11772;DHT22;12556;55.748;13.194;2023-02-10T11:36:55;8.00;99.90
11772;DHT22;12556;55.748;13.194;2023-02-10T11:39:28;8.00;99.90
11772;DHT22;12556;55.748;13.194;2023-02-10T11:41:56;8.10;99.90
11772;DHT22;12556;55.748;13.194;2023-02-10T11:44:28;8.20;99.90
11772;DHT22;12556;55.748;13.194;2023-02-10T11:46:57;8.20;99.90
11772;DHT22;12556;55.748;13.194;2023-02-10T11:49:24;8.10;99.90
11772;DHT22;12556;55.748;13.194;2023-02-10T11:51:57;8.00;99.90
11772;DHT22;12556;55.748;13.194;2023-02-10T11:54:25;7.80;99.90
11772;DHT22;12556;55.748;13.194;2023-02-10T11:57:01;7.90;99.90
11772;DHT22;12556;55.748;13.194;2023-02-10T12:00:05;8.00;99.90
11772;DHT22;12556;55.748;13.194;2023-02-10T12:02:51;8.10;99.90
11772;DHT22;12556;55.748;13.194;2023-02-10T12:05:25;8.20;99.90
11772;DHT22;12556;55.748;13.194;2023-02-10T12:08:02;8.30;99.90
11772;DHT22;12556;55.748;13.194;2023-02-10T12:10:35;8.40;99.90
11772;DHT22;12556;55.748;13.194;2023-02-10T12:13:09;8.50;99.90
11772;DHT22;12556;55.748;13.194;2023-02-10T12:15:47;8.70;99.90
11772;DHT22;12556;55.748;13.194;2023-02-10T12:18:35;8.90;99.90
11772;DHT22;12556;55.748;13.194;2023-02-10T12:21:16;9.10;99.90
11772;DHT22;12556;55.748;13.194;2023-02-10T12:23:55;9.30;99.90
11772;DHT22;12556;55.748;13.194;2023-02-10T12:26:27;9.10;99.90
11772;DHT22;12556;55.748;13.194;2023-02-10T12:29:03;9.00;99.90
11772;DHT22;12556;55.748;13.194;2023-02-10T12:31:43;8.80;99.90
11772;DHT22;12556;55.748;13.194;2023-02-10T12:37:18;8.90;99.90
11772;DHT22;12556;55.748;13.194;2023-02-10T12:39:51;8.70;99.90
11772;DHT22;12556;55.748;13.194;2023-02-10T12:42:36;8.60;99.90
11772;DHT22;12556;55.748;13.194;2023-02-10T12:45:15;8.50;99.90
11772;DHT22;12556;55.748;13.194;2023-02-10T12:47:51;8.40;99.90
11772;DHT22;12556;55.748;13.194;2023-02-10T12:50:46;8.30;99.90
11772;DHT22;12556;55.748;13.194;2023-02-10T12:53:17;8.30;99.90
11772;DHT22;12556;55.748;13.194;2023-02-10T12:55:51;8.20;99.90
11772;DHT22;12556;55.748;13.194;2023-02-10T12:58:23;8.30;99.90
11772;DHT22;12556;55.748;13.194;2023-02-10T13:01:00;8.20;99.90
11772;DHT22;12556;55.748;13.194;2023-02-10T13:03:32;8.20;99.90
11772;DHT22;12556;55.748;13.194;2023-02-10T13:06:11;8.10;99.90
11772;DHT22;12556;55.748;13.194;2023-02-10T13:08:43;8.10;99.90
11772;DHT22;12556;55.748;13.194;2023-02-10T13:11:16;8.00;99.90
11772;DHT22;12556;55.748;13.194;2023-02-10T13:13:47;7.90;99.90
11772;DHT22;12556;55.748;13.194;2023-02-10T13:16:18;7.80;99.90
11772;DHT22;12556;55.748;13.194;2023-02-10T13:18:52;7.80;99.90
11772;DHT22;12556;55.748;13.194;2023-02-10T13:21:25;7.70;99.90
11772;DHT22;12556;55.748;13.194;2023-02-10T13:23:58;7.70;99.90
11772;DHT22;12556;55.748;13.194;2023-02-10T13:26:41;7.70;99.90
11772;DHT22;12556;55.748;13.194;2023-02-10T13:29:23;7.70;99.90
11772;DHT22;12556;55.748;13.194;2023-02-10T13:34:56;7.60;99.90
11772;DHT22;12556;55.748;13.194;2023-02-10T13:37:31;7.50;99.90
11772;DHT22;12556;55.748;13.194;2023-02-10T13:40:04;7.50;99.90
11772;DHT22;12556;55.748;13.194;2023-02-10T13:42:45;7.60;99.90
11772;DHT22;12556;55.748;13.194;2023-02-10T13:45:16;7.60;99.90
11772;DHT22;12556;55.748;13.194;2023-02-10T13:47:49;7.60;99.90
11772;DHT22;12556;55.748;13.194;2023-02-10T13:50:26;7.60;99.90
11772;DHT22;12556;55.748;13.194;2023-02-10T13:52:55;7.60;99.90
11772;DHT22;12556;55.748;13.194;2023-02-10T13:55:40;7.60;99.90
11772;DHT22;12556;55.748;13.194;2023-02-10T13:58:24;7.60;99.90
11772;DHT22;12556;55.748;13.194;2023-02-10T14:00:53;7.60;99.90
11772;DHT22;12556;55.748;13.194;2023-02-10T14:03:23;7.90;99.90
11772;DHT22;12556;55.748;13.194;2023-02-10T14:05:56;7.50;99.90
11772;DHT22;12556;55.748;13.194;2023-02-10T14:08:29;7.50;99.90
11772;DHT22;12556;55.748;13.194;2023-02-10T14:10:59;7.50;99.90
11772;DHT22;12556;55.748;13.194;2023-02-10T14:13:28;7.50;99.90
11772;DHT22;12556;55.748;13.194;2023-02-10T14:15:59;7.40;99.90
11772;DHT22;12556;55.748;13.194;2023-02-10T14:18:28;7.40;99.90
11772;DHT22;12556;55.748;13.194;2023-02-10T14:20:59;7.30;99.90
11772;DHT22;12556;55.748;13.194;2023-02-10T14:23:29;7.30;99.90
11772;DHT22;12556;55.748;13.194;2023-02-10T14:25:58;7.20;99.90
11772;DHT22;12556;55.748;13.194;2023-02-10T14:28:29;7.20;99.90
11772;DHT22;12556;55.748;13.194;2023-02-10T14:31:00;7.10;99.90
11772;DHT22;12556;55.748;13.194;2023-02-10T14:33:29;7.00;99.90
11772;DHT22;12556;55.748;13.194;2023-02-10T14:35:59;6.90;99.90
11772;DHT22;12556;55.748;13.194;2023-02-10T14:38:27;6.90;99.90
11772;DHT22;12556;55.748;13.194;2023-02-10T14:40:56;6.80;99.90
11772;DHT22;12556;55.748;13.194;2023-02-10T14:43:25;6.70;99.90
11772;DHT22;12556;55.748;13.194;2023-02-10T14:45:54;6.60;99.90
11772;DHT22;12556;55.748;13.194;2023-02-10T14:48:22;6.60;99.90
11772;DHT22;12556;55.748;13.194;2023-02-10T14:51:05;6.50;99.90
11772;DHT22;12556;55.748;13.194;2023-02-10T14:53:35;6.50;99.90
11772;DHT22;12556;55.748;13.194;2023-02-10T14:56:16;6.40;99.90
11772;DHT22;12556;55.748;13.194;2023-02-10T14:58:43;6.40;99.90
11772;DHT22;12556;55.748;13.194;2023-02-10T15:01:15;6.30;99.90
11772;DHT22;12556;55.748;13.194;2023-02-10T15:03:43;6.40;99.90
11772;DHT22;12556;55.748;13.194;2023-02-10T15:06:13;6.30;99.90
11772;DHT22;12556;55.748;13.194;2023-02-10T15:08:44;6.30;99.90
11772;DHT22;12556;55.748;13.194;2023-02-10T15:11:16;6.30;99.90
11772;DHT22;12556;55.748;13.194;2023-02-10T15:14:11;6.30;99.90
11772;DHT22;12556;55.748;13.194;2023-02-10T15:16:40;6.20;99.90
11772;DHT22;12556;55.748;13.194;2023-02-10T15:19:13;6.30;99.90
11772;DHT22;12556;55.748;13.194;2023-02-10T15:21:43;6.20;99.90
11772;DHT22;12556;55.748;13.194;2023-02-10T15:24:22;6.20;99.90
11772;DHT22;12556;55.748;13.194;2023-02-10T15:26:51;6.20;99.90
11772;DHT22;12556;55.748;13.194;2023-02-10T15:29:18;6.10;99.90
11772;DHT22;12556;55.748;13.194;2023-02-10T15:31:52;6.10;99.90
11772;DHT22;12556;55.748;13.194;2023-02-10T15:34:22;6.10;99.90
11772;DHT22;12556;55.748;13.194;2023-02-10T15:36:56;6.10;99.90
11772;DHT22;12556;55.748;13.194;2023-02-10T15:39:26;6.10;99.90
11772;DHT22;12556;55.748;13.194;2023-02-10T15:42:00;6.00;99.90
11772;DHT22;12556;55.748;13.194;2023-02-10T15:44:35;6.00;99.90
11772;DHT22;12556;55.748;13.194;2023-02-10T15:47:24;6.00;99.90
11772;DHT22;12556;55.748;13.194;2023-02-10T15:49:54;6.00;99.90
11772;DHT22;12556;55.748;13.194;2023-02-10T15:52:26;6.00;99.90
11772;DHT22;12556;55.748;13.194;2023-02-10T15:54:56;6.00;99.90
11772;DHT22;12556;55.748;13.194;2023-02-10T15:57:23;5.90;99.90